sensor_id;sensor_type;location;lat;lon;timestamp;P1;durP1;ratioP1;P2;durP2;ratioP2
52744;SDS011;38637;49.984;20.426;2023-04-06T00:01:06;30.08;;;20.00;;
52744;SDS011;38637;49.984;20.426;2023-04-06T00:03:32;33.22;;;21.55;;
52744;SDS011;38637;49.984;20.426;2023-04-06T00:05:57;32.60;;;20.83;;
52744;SDS011;38637;49.984;20.426;2023-04-06T00:08:22;32.60;;;21.67;;
52744;SDS011;38637;49.984;20.426;2023-04-06T00:10:48;31.13;;;19.67;;
52744;SDS011;38637;49.984;20.426;2023-04-06T00:13:13;34.33;;;21.23;;
52744;SDS011;38637;49.984;20.426;2023-04-06T00:15:39;37.37;;;23.83;;
52744;SDS011;38637;49.984;20.426;2023-04-06T00:18:05;36.90;;;24.23;;
52744;SDS011;38637;49.984;20.426;2023-04-06T00:20:30;34.63;;;22.60;;
52744;SDS011;38637;49.984;20.426;2023-04-06T00:22:56;41.80;;;23.33;;
52744;SDS011;38637;49.984;20.426;2023-04-06T00:25:21;34.57;;;23.13;;
52744;SDS011;38637;49.984;20.426;2023-04-06T00:27:47;33.50;;;20.90;;
52744;SDS011;38637;49.984;20.426;2023-04-06T00:30:12;35.33;;;20.77;;
52744;SDS011;38637;49.984;20.426;2023-04-06T00:32:38;33.67;;;20.73;;
52744;SDS011;38637;49.984;20.426;2023-04-06T00:35:03;28.73;;;20.57;;
52744;SDS011;38637;49.984;20.426;2023-04-06T00:37:29;32.22;;;21.30;;
52744;SDS011;38637;49.984;20.426;2023-04-06T00:39:55;34.17;;;21.53;;
52744;SDS011;38637;49.984;20.426;2023-04-06T00:42:20;37.20;;;24.37;;
52744;SDS011;38637;49.984;20.426;2023-04-06T00:44:52;30.95;;;19.92;;
52744;SDS011;38637;49.984;20.426;2023-04-06T00:47:21;29.88;;;20.13;;
52744;SDS011;38637;49.984;20.426;2023-04-06T00:49:48;34.95;;;22.20;;
52744;SDS011;38637;49.984;20.426;2023-04-06T00:52:13;35.93;;;21.70;;
52744;SDS011;38637;49.984;20.426;2023-04-06T00:54:39;33.03;;;21.13;;
52744;SDS011;38637;49.984;20.426;2023-04-06T00:57:05;29.63;;;20.40;;
52744;SDS011;38637;49.984;20.426;2023-04-06T00:59:30;37.03;;;22.70;;
52744;SDS011;38637;49.984;20.426;2023-04-06T01:01:56;36.53;;;21.47;;
52744;SDS011;38637;49.984;20.426;2023-04-06T01:04:21;32.63;;;21.47;;
52744;SDS011;38637;49.984;20.426;2023-04-06T01:06:49;31.85;;;21.25;;
52744;SDS011;38637;49.984;20.426;2023-04-06T01:09:16;30.65;;;20.80;;
52744;SDS011;38637;49.984;20.426;2023-04-06T01:11:42;34.85;;;21.45;;
52744;SDS011;38637;49.984;20.426;2023-04-06T01:14:08;33.50;;;20.52;;
52744;SDS011;38637;49.984;20.426;2023-04-06T01:16:34;35.43;;;21.37;;
52744;SDS011;38637;49.984;20.426;2023-04-06T01:19:00;35.15;;;21.73;;
52744;SDS011;38637;49.984;20.426;2023-04-06T01:21:25;36.60;;;22.43;;
52744;SDS011;38637;49.984;20.426;2023-04-06T01:23:51;33.27;;;21.53;;
52744;SDS011;38637;49.984;20.426;2023-04-06T01:26:16;35.00;;;21.80;;
52744;SDS011;38637;49.984;20.426;2023-04-06T01:28:42;33.63;;;22.17;;
52744;SDS011;38637;49.984;20.426;2023-04-06T01:31:08;33.10;;;20.60;;
52744;SDS011;38637;49.984;20.426;2023-04-06T01:33:34;39.92;;;21.30;;
52744;SDS011;38637;49.984;20.426;2023-04-06T01:35:59;39.13;;;23.97;;
52744;SDS011;38637;49.984;20.426;2023-04-06T01:38:25;36.23;;;21.97;;
52744;SDS011;38637;49.984;20.426;2023-04-06T01:40:51;34.70;;;22.35;;
52744;SDS011;38637;49.984;20.426;2023-04-06T01:43:17;42.43;;;27.67;;
52744;SDS011;38637;49.984;20.426;2023-04-06T01:45:42;45.43;;;31.43;;
52744;SDS011;38637;49.984;20.426;2023-04-06T01:48:07;41.33;;;25.70;;
52744;SDS011;38637;49.984;20.426;2023-04-06T01:50:33;40.13;;;24.83;;
52744;SDS011;38637;49.984;20.426;2023-04-06T01:52:58;38.73;;;24.47;;
52744;SDS011;38637;49.984;20.426;2023-04-06T01:55:23;38.40;;;24.47;;
52744;SDS011;38637;49.984;20.426;2023-04-06T01:57:49;38.07;;;24.57;;
52744;SDS011;38637;49.984;20.426;2023-04-06T02:00:15;36.17;;;23.27;;
52744;SDS011;38637;49.984;20.426;2023-04-06T02:02:40;37.85;;;24.83;;
52744;SDS011;38637;49.984;20.426;2023-04-06T02:05:06;40.83;;;23.57;;
52744;SDS011;38637;49.984;20.426;2023-04-06T02:07:32;39.37;;;24.23;;
52744;SDS011;38637;49.984;20.426;2023-04-06T02:09:57;39.60;;;23.50;;
52744;SDS011;38637;49.984;20.426;2023-04-06T02:12:22;37.20;;;23.90;;
52744;SDS011;38637;49.984;20.426;2023-04-06T02:14:48;34.47;;;22.85;;
52744;SDS011;38637;49.984;20.426;2023-04-06T02:17:14;33.20;;;21.50;;
52744;SDS011;38637;49.984;20.426;2023-04-06T02:19:40;33.90;;;20.73;;
52744;SDS011;38637;49.984;20.426;2023-04-06T02:22:05;31.13;;;20.07;;
52744;SDS011;38637;49.984;20.426;2023-04-06T02:24:31;32.33;;;20.90;;
52744;SDS011;38637;49.984;20.426;2023-04-06T02:26:56;28.83;;;19.33;;
52744;SDS011;38637;49.984;20.426;2023-04-06T02:29:21;33.80;;;19.60;;
52744;SDS011;38637;49.984;20.426;2023-04-06T02:31:47;35.47;;;22.00;;
52744;SDS011;38637;49.984;20.426;2023-04-06T02:34:12;38.73;;;21.37;;
52744;SDS011;38637;49.984;20.426;2023-04-06T02:36:42;33.37;;;22.27;;
52744;SDS011;38637;49.984;20.426;2023-04-06T02:39:09;33.37;;;22.50;;
52744;SDS011;38637;49.984;20.426;2023-04-06T02:41:35;36.80;;;23.33;;
52744;SDS011;38637;49.984;20.426;2023-04-06T02:44:00;37.50;;;22.63;;
52744;SDS011;38637;49.984;20.426;2023-04-06T02:46:25;38.33;;;24.63;;
52744;SDS011;38637;49.984;20.426;2023-04-06T02:48:51;34.27;;;21.13;;
52744;SDS011;38637;49.984;20.426;2023-04-06T02:51:16;33.67;;;22.53;;
52744;SDS011;38637;49.984;20.426;2023-04-06T02:53:41;32.07;;;20.90;;
52744;SDS011;38637;49.984;20.426;2023-04-06T02:56:07;29.13;;;19.20;;
52744;SDS011;38637;49.984;20.426;2023-04-06T02:58:32;32.37;;;19.13;;
52744;SDS011;38637;49.984;20.426;2023-04-06T03:00:57;28.27;;;18.70;;
52744;SDS011;38637;49.984;20.426;2023-04-06T03:03:23;29.27;;;19.00;;
52744;SDS011;38637;49.984;20.426;2023-04-06T03:05:48;28.57;;;18.30;;
52744;SDS011;38637;49.984;20.426;2023-04-06T03:08:13;29.03;;;18.73;;
52744;SDS011;38637;49.984;20.426;2023-04-06T03:10:39;28.73;;;18.33;;
52744;SDS011;38637;49.984;20.426;2023-04-06T03:13:04;29.27;;;18.43;;
52744;SDS011;38637;49.984;20.426;2023-04-06T03:15:30;28.97;;;18.23;;
52744;SDS011;38637;49.984;20.426;2023-04-06T03:17:55;31.30;;;16.50;;
52744;SDS011;38637;49.984;20.426;2023-04-06T03:20:20;26.73;;;18.03;;
52744;SDS011;38637;49.984;20.426;2023-04-06T03:22:46;27.83;;;17.03;;
52744;SDS011;38637;49.984;20.426;2023-04-06T03:25:11;24.90;;;17.10;;
52744;SDS011;38637;49.984;20.426;2023-04-06T03:27:36;27.13;;;16.93;;
52744;SDS011;38637;49.984;20.426;2023-04-06T03:30:02;27.17;;;17.00;;
52744;SDS011;38637;49.984;20.426;2023-04-06T03:32:27;24.07;;;16.00;;
52744;SDS011;38637;49.984;20.426;2023-04-06T03:34:53;25.77;;;16.73;;
52744;SDS011;38637;49.984;20.426;2023-04-06T03:37:18;29.60;;;18.03;;
52744;SDS011;38637;49.984;20.426;2023-04-06T03:39:43;23.97;;;16.20;;
52744;SDS011;38637;49.984;20.426;2023-04-06T03:42:09;29.47;;;17.10;;
52744;SDS011;38637;49.984;20.426;2023-04-06T03:44:34;30.30;;;16.53;;
52744;SDS011;38637;49.984;20.426;2023-04-06T03:46:59;28.67;;;17.50;;
52744;SDS011;38637;49.984;20.426;2023-04-06T03:49:25;26.95;;;17.17;;
52744;SDS011;38637;49.984;20.426;2023-04-06T03:51:52;27.53;;;17.10;;
52744;SDS011;38637;49.984;20.426;2023-04-06T03:54:17;26.63;;;18.95;;
52744;SDS011;38637;49.984;20.426;2023-04-06T03:56:43;28.73;;;18.93;;
52744;SDS011;38637;49.984;20.426;2023-04-06T03:59:08;33.73;;;20.93;;
52744;SDS011;38637;49.984;20.426;2023-04-06T04:01:33;46.43;;;26.93;;
52744;SDS011;38637;49.984;20.426;2023-04-06T04:03:59;44.90;;;26.20;;
52744;SDS011;38637;49.984;20.426;2023-04-06T04:06:25;38.23;;;24.37;;
52744;SDS011;38637;49.984;20.426;2023-04-06T04:08:50;41.53;;;23.37;;
52744;SDS011;38637;49.984;20.426;2023-04-06T04:11:15;33.30;;;22.03;;
52744;SDS011;38637;49.984;20.426;2023-04-06T04:13:41;32.20;;;20.07;;
52744;SDS011;38637;49.984;20.426;2023-04-06T04:16:06;28.07;;;18.60;;
52744;SDS011;38637;49.984;20.426;2023-04-06T04:18:31;27.97;;;19.57;;
52744;SDS011;38637;49.984;20.426;2023-04-06T04:20:57;29.77;;;20.27;;
52744;SDS011;38637;49.984;20.426;2023-04-06T04:23:22;32.07;;;20.07;;
52744;SDS011;38637;49.984;20.426;2023-04-06T04:25:48;31.17;;;20.57;;
52744;SDS011;38637;49.984;20.426;2023-04-06T04:28:13;26.40;;;21.50;;
52744;SDS011;38637;49.984;20.426;2023-04-06T04:30:38;29.10;;;21.23;;
52744;SDS011;38637;49.984;20.426;2023-04-06T04:33:04;28.53;;;19.33;;
52744;SDS011;38637;49.984;20.426;2023-04-06T04:35:29;33.07;;;20.10;;
52744;SDS011;38637;49.984;20.426;2023-04-06T04:37:55;27.57;;;18.93;;
52744;SDS011;38637;49.984;20.426;2023-04-06T04:40:22;27.63;;;19.07;;
52744;SDS011;38637;49.984;20.426;2023-04-06T04:42:48;26.33;;;17.97;;
52744;SDS011;38637;49.984;20.426;2023-04-06T04:45:13;26.07;;;20.00;;
52744;SDS011;38637;49.984;20.426;2023-04-06T04:47:39;26.23;;;19.37;;
52744;SDS011;38637;49.984;20.426;2023-04-06T04:50:04;35.43;;;24.07;;
52744;SDS011;38637;49.984;20.426;2023-04-06T04:52:30;32.17;;;18.63;;
52744;SDS011;38637;49.984;20.426;2023-04-06T04:54:55;34.17;;;21.50;;
52744;SDS011;38637;49.984;20.426;2023-04-06T04:57:21;31.70;;;21.40;;
52744;SDS011;38637;49.984;20.426;2023-04-06T04:59:46;30.80;;;20.17;;
52744;SDS011;38637;49.984;20.426;2023-04-06T05:02:12;33.38;;;21.83;;
52744;SDS011;38637;49.984;20.426;2023-04-06T05:04:38;38.60;;;20.57;;
52744;SDS011;38637;49.984;20.426;2023-04-06T05:07:07;31.97;;;22.10;;
52744;SDS011;38637;49.984;20.426;2023-04-06T05:09:33;34.67;;;21.75;;
52744;SDS011;38637;49.984;20.426;2023-04-06T05:11:59;34.57;;;20.10;;
52744;SDS011;38637;49.984;20.426;2023-04-06T05:14:25;33.70;;;20.85;;
52744;SDS011;38637;49.984;20.426;2023-04-06T05:16:51;34.22;;;22.73;;
52744;SDS011;38637;49.984;20.426;2023-04-06T05:19:17;33.70;;;20.93;;
52744;SDS011;38637;49.984;20.426;2023-04-06T05:21:42;32.77;;;20.93;;
52744;SDS011;38637;49.984;20.426;2023-04-06T05:24:07;32.43;;;20.47;;
52744;SDS011;38637;49.984;20.426;2023-04-06T05:26:33;30.27;;;19.70;;
52744;SDS011;38637;49.984;20.426;2023-04-06T05:28:59;27.97;;;19.40;;
52744;SDS011;38637;49.984;20.426;2023-04-06T05:31:24;30.50;;;19.57;;
52744;SDS011;38637;49.984;20.426;2023-04-06T05:33:50;25.47;;;18.53;;
52744;SDS011;38637;49.984;20.426;2023-04-06T05:36:15;24.93;;;17.57;;
52744;SDS011;38637;49.984;20.426;2023-04-06T05:38:41;26.97;;;17.73;;
52744;SDS011;38637;49.984;20.426;2023-04-06T05:41:06;29.90;;;19.27;;
52744;SDS011;38637;49.984;20.426;2023-04-06T05:43:31;22.97;;;16.83;;
52744;SDS011;38637;49.984;20.426;2023-04-06T05:45:57;27.53;;;15.87;;
52744;SDS011;38637;49.984;20.426;2023-04-06T05:48:22;22.33;;;15.97;;
52744;SDS011;38637;49.984;20.426;2023-04-06T05:50:48;23.63;;;16.50;;
52744;SDS011;38637;49.984;20.426;2023-04-06T05:53:15;23.17;;;17.27;;
52744;SDS011;38637;49.984;20.426;2023-04-06T05:55:40;21.70;;;15.13;;
52744;SDS011;38637;49.984;20.426;2023-04-06T05:58:06;19.73;;;14.30;;
52744;SDS011;38637;49.984;20.426;2023-04-06T06:00:31;25.93;;;16.80;;
52744;SDS011;38637;49.984;20.426;2023-04-06T06:02:56;23.27;;;16.50;;
52744;SDS011;38637;49.984;20.426;2023-04-06T06:05:22;20.23;;;16.40;;
52744;SDS011;38637;49.984;20.426;2023-04-06T06:07:47;27.20;;;15.77;;
52744;SDS011;38637;49.984;20.426;2023-04-06T06:10:12;23.90;;;15.43;;
52744;SDS011;38637;49.984;20.426;2023-04-06T06:12:38;21.27;;;15.47;;
52744;SDS011;38637;49.984;20.426;2023-04-06T06:15:03;19.53;;;14.87;;
52744;SDS011;38637;49.984;20.426;2023-04-06T06:17:30;20.40;;;14.52;;
52744;SDS011;38637;49.984;20.426;2023-04-06T06:19:55;24.23;;;15.90;;
52744;SDS011;38637;49.984;20.426;2023-04-06T06:22:20;22.10;;;16.07;;
52744;SDS011;38637;49.984;20.426;2023-04-06T06:24:46;21.00;;;15.07;;
52744;SDS011;38637;49.984;20.426;2023-04-06T06:27:11;21.03;;;14.27;;
52744;SDS011;38637;49.984;20.426;2023-04-06T06:29:36;21.07;;;14.63;;
52744;SDS011;38637;49.984;20.426;2023-04-06T06:32:02;20.20;;;15.07;;
52744;SDS011;38637;49.984;20.426;2023-04-06T06:34:27;20.30;;;14.30;;
52744;SDS011;38637;49.984;20.426;2023-04-06T06:36:52;24.47;;;16.33;;
52744;SDS011;38637;49.984;20.426;2023-04-06T06:39:20;21.00;;;14.02;;
52744;SDS011;38637;49.984;20.426;2023-04-06T06:41:45;18.77;;;13.87;;
52744;SDS011;38637;49.984;20.426;2023-04-06T06:44:11;19.20;;;13.33;;
52744;SDS011;38637;49.984;20.426;2023-04-06T06:46:36;20.43;;;13.70;;
52744;SDS011;38637;49.984;20.426;2023-04-06T06:49:01;16.50;;;11.90;;
52744;SDS011;38637;49.984;20.426;2023-04-06T06:51:28;17.38;;;12.23;;
52744;SDS011;38637;49.984;20.426;2023-04-06T06:53:53;17.07;;;13.13;;
52744;SDS011;38637;49.984;20.426;2023-04-06T06:56:18;16.97;;;13.23;;
52744;SDS011;38637;49.984;20.426;2023-04-06T06:58:44;21.73;;;13.87;;
52744;SDS011;38637;49.984;20.426;2023-04-06T07:01:09;16.35;;;11.85;;
52744;SDS011;38637;49.984;20.426;2023-04-06T07:03:35;15.03;;;11.67;;
52744;SDS011;38637;49.984;20.426;2023-04-06T07:06:00;16.90;;;11.83;;
52744;SDS011;38637;49.984;20.426;2023-04-06T07:08:26;13.80;;;10.87;;
52744;SDS011;38637;49.984;20.426;2023-04-06T07:10:51;14.93;;;11.80;;
52744;SDS011;38637;49.984;20.426;2023-04-06T07:13:17;17.70;;;10.98;;
52744;SDS011;38637;49.984;20.426;2023-04-06T07:15:47;15.25;;;10.38;;
52744;SDS011;38637;49.984;20.426;2023-04-06T07:18:13;14.50;;;10.60;;
52744;SDS011;38637;49.984;20.426;2023-04-06T07:20:38;17.53;;;10.83;;
52744;SDS011;38637;49.984;20.426;2023-04-06T07:23:04;15.30;;;11.60;;
52744;SDS011;38637;49.984;20.426;2023-04-06T07:25:29;15.40;;;10.90;;
52744;SDS011;38637;49.984;20.426;2023-04-06T07:27:55;15.00;;;11.23;;
52744;SDS011;38637;49.984;20.426;2023-04-06T07:30:20;14.37;;;10.33;;
52744;SDS011;38637;49.984;20.426;2023-04-06T07:32:47;13.35;;;10.38;;
52744;SDS011;38637;49.984;20.426;2023-04-06T07:35:12;16.33;;;11.97;;
52744;SDS011;38637;49.984;20.426;2023-04-06T07:37:37;15.90;;;11.87;;
52744;SDS011;38637;49.984;20.426;2023-04-06T07:40:03;14.37;;;10.47;;
52744;SDS011;38637;49.984;20.426;2023-04-06T07:42:28;18.70;;;11.87;;
52744;SDS011;38637;49.984;20.426;2023-04-06T07:44:54;17.67;;;12.27;;
52744;SDS011;38637;49.984;20.426;2023-04-06T07:47:19;15.43;;;11.40;;
52744;SDS011;38637;49.984;20.426;2023-04-06T07:49:45;17.20;;;12.27;;
52744;SDS011;38637;49.984;20.426;2023-04-06T07:52:10;15.07;;;10.43;;
52744;SDS011;38637;49.984;20.426;2023-04-06T07:54:35;15.23;;;10.67;;
52744;SDS011;38637;49.984;20.426;2023-04-06T07:57:01;16.53;;;11.57;;
52744;SDS011;38637;49.984;20.426;2023-04-06T07:59:26;13.93;;;10.47;;
52744;SDS011;38637;49.984;20.426;2023-04-06T08:01:51;15.43;;;10.67;;
52744;SDS011;38637;49.984;20.426;2023-04-06T08:04:17;13.03;;;9.37;;
52744;SDS011;38637;49.984;20.426;2023-04-06T08:06:42;14.23;;;9.77;;
52744;SDS011;38637;49.984;20.426;2023-04-06T08:09:07;15.37;;;9.63;;
52744;SDS011;38637;49.984;20.426;2023-04-06T08:11:33;11.07;;;9.33;;
52744;SDS011;38637;49.984;20.426;2023-04-06T08:13:58;12.10;;;9.10;;
52744;SDS011;38637;49.984;20.426;2023-04-06T08:16:24;14.13;;;9.90;;
52744;SDS011;38637;49.984;20.426;2023-04-06T08:18:49;12.15;;;8.85;;
52744;SDS011;38637;49.984;20.426;2023-04-06T08:21:15;13.40;;;9.83;;
52744;SDS011;38637;49.984;20.426;2023-04-06T08:23:40;12.77;;;9.23;;
52744;SDS011;38637;49.984;20.426;2023-04-06T08:26:06;11.73;;;9.03;;
52744;SDS011;38637;49.984;20.426;2023-04-06T08:28:31;13.20;;;10.53;;
52744;SDS011;38637;49.984;20.426;2023-04-06T08:30:59;13.60;;;9.98;;
52744;SDS011;38637;49.984;20.426;2023-04-06T08:33:28;9.45;;;7.90;;
52744;SDS011;38637;49.984;20.426;2023-04-06T08:35:53;12.13;;;7.27;;
52744;SDS011;38637;49.984;20.426;2023-04-06T08:38:19;10.80;;;7.80;;
52744;SDS011;38637;49.984;20.426;2023-04-06T08:40:44;8.80;;;7.23;;
52744;SDS011;38637;49.984;20.426;2023-04-06T08:43:14;8.73;;;7.20;;
52744;SDS011;38637;49.984;20.426;2023-04-06T08:45:42;9.00;;;6.80;;
52744;SDS011;38637;49.984;20.426;2023-04-06T08:48:08;13.15;;;7.68;;
52744;SDS011;38637;49.984;20.426;2023-04-06T08:50:33;10.90;;;8.20;;
52744;SDS011;38637;49.984;20.426;2023-04-06T08:52:59;10.23;;;7.90;;
52744;SDS011;38637;49.984;20.426;2023-04-06T08:55:26;10.68;;;8.30;;
52744;SDS011;38637;49.984;20.426;2023-04-06T08:57:52;12.15;;;9.43;;
52744;SDS011;38637;49.984;20.426;2023-04-06T09:00:22;11.32;;;9.52;;
52744;SDS011;38637;49.984;20.426;2023-04-06T09:02:50;13.93;;;9.82;;
52744;SDS011;38637;49.984;20.426;2023-04-06T09:05:19;11.27;;;8.02;;
52744;SDS011;38637;49.984;20.426;2023-04-06T09:07:46;12.93;;;9.13;;
52744;SDS011;38637;49.984;20.426;2023-04-06T09:10:11;11.27;;;7.60;;
52744;SDS011;38637;49.984;20.426;2023-04-06T09:12:37;10.33;;;7.37;;
52744;SDS011;38637;49.984;20.426;2023-04-06T09:15:02;11.70;;;8.47;;
52744;SDS011;38637;49.984;20.426;2023-04-06T09:17:29;12.33;;;8.80;;
52744;SDS011;38637;49.984;20.426;2023-04-06T09:19:57;10.10;;;8.60;;
52744;SDS011;38637;49.984;20.426;2023-04-06T09:22:23;11.75;;;8.30;;
52744;SDS011;38637;49.984;20.426;2023-04-06T09:24:53;9.93;;;8.55;;
52744;SDS011;38637;49.984;20.426;2023-04-06T09:27:32;11.05;;;9.85;;
52744;SDS011;38637;49.984;20.426;2023-04-06T09:30:08;13.10;;;9.48;;
52744;SDS011;38637;49.984;20.426;2023-04-06T09:35:12;11.02;;;9.18;;
52744;SDS011;38637;49.984;20.426;2023-04-06T09:37:37;14.20;;;10.33;;
52744;SDS011;38637;49.984;20.426;2023-04-06T09:40:03;20.50;;;14.37;;
52744;SDS011;38637;49.984;20.426;2023-04-06T09:42:32;14.77;;;10.38;;
52744;SDS011;38637;49.984;20.426;2023-04-06T09:44:58;22.87;;;12.57;;
52744;SDS011;38637;49.984;20.426;2023-04-06T09:47:23;11.97;;;9.63;;
52744;SDS011;38637;49.984;20.426;2023-04-06T09:49:51;10.63;;;9.20;;
52744;SDS011;38637;49.984;20.426;2023-04-06T09:52:21;11.00;;;8.57;;
52744;SDS011;38637;49.984;20.426;2023-04-06T09:54:49;22.75;;;10.50;;
52744;SDS011;38637;49.984;20.426;2023-04-06T09:57:24;24.02;;;13.40;;
52744;SDS011;38637;49.984;20.426;2023-04-06T10:02:27;17.23;;;9.45;;
52744;SDS011;38637;49.984;20.426;2023-04-06T10:07:59;20.65;;;13.07;;
52744;SDS011;38637;49.984;20.426;2023-04-06T10:10:30;18.52;;;10.82;;
52744;SDS011;38637;49.984;20.426;2023-04-06T10:12:55;17.17;;;10.27;;
52744;SDS011;38637;49.984;20.426;2023-04-06T10:15:21;13.67;;;9.80;;
52744;SDS011;38637;49.984;20.426;2023-04-06T10:17:46;16.03;;;11.00;;
52744;SDS011;38637;49.984;20.426;2023-04-06T10:20:15;24.20;;;14.23;;
52744;SDS011;38637;49.984;20.426;2023-04-06T10:22:51;13.00;;;10.40;;
52744;SDS011;38637;49.984;20.426;2023-04-06T10:25:31;18.88;;;10.40;;
52744;SDS011;38637;49.984;20.426;2023-04-06T10:28:00;13.93;;;10.90;;
52744;SDS011;38637;49.984;20.426;2023-04-06T10:30:29;16.23;;;12.27;;
52744;SDS011;38637;49.984;20.426;2023-04-06T10:32:55;14.30;;;10.48;;
52744;SDS011;38637;49.984;20.426;2023-04-06T10:35:21;17.23;;;12.37;;
52744;SDS011;38637;49.984;20.426;2023-04-06T10:38:00;14.30;;;10.93;;
52744;SDS011;38637;49.984;20.426;2023-04-06T10:40:26;13.70;;;12.20;;
52744;SDS011;38637;49.984;20.426;2023-04-06T10:42:55;16.43;;;11.90;;
52744;SDS011;38637;49.984;20.426;2023-04-06T10:45:31;15.60;;;11.75;;
52744;SDS011;38637;49.984;20.426;2023-04-06T10:47:57;15.67;;;12.20;;
52744;SDS011;38637;49.984;20.426;2023-04-06T10:50:22;15.17;;;13.33;;
52744;SDS011;38637;49.984;20.426;2023-04-06T10:53:01;13.13;;;11.53;;
52744;SDS011;38637;49.984;20.426;2023-04-06T10:55:27;14.35;;;12.60;;
52744;SDS011;38637;49.984;20.426;2023-04-06T10:57:54;14.10;;;11.88;;
52744;SDS011;38637;49.984;20.426;2023-04-06T11:00:19;16.27;;;12.17;;
52744;SDS011;38637;49.984;20.426;2023-04-06T11:02:45;18.45;;;14.57;;
52744;SDS011;38637;49.984;20.426;2023-04-06T11:05:11;18.67;;;14.53;;
52744;SDS011;38637;49.984;20.426;2023-04-06T11:10:04;20.33;;;14.00;;
52744;SDS011;38637;49.984;20.426;2023-04-06T11:12:29;18.50;;;13.73;;
52744;SDS011;38637;49.984;20.426;2023-04-06T11:14:56;19.13;;;13.98;;
52744;SDS011;38637;49.984;20.426;2023-04-06T11:17:34;21.52;;;15.95;;
52744;SDS011;38637;49.984;20.426;2023-04-06T11:20:01;19.00;;;15.45;;
52744;SDS011;38637;49.984;20.426;2023-04-06T11:22:27;20.63;;;14.55;;
52744;SDS011;38637;49.984;20.426;2023-04-06T11:24:53;18.67;;;14.80;;
52744;SDS011;38637;49.984;20.426;2023-04-06T11:29:57;19.70;;;15.10;;
52744;SDS011;38637;49.984;20.426;2023-04-06T11:32:23;19.73;;;16.90;;
52744;SDS011;38637;49.984;20.426;2023-04-06T11:34:49;24.02;;;17.90;;
52744;SDS011;38637;49.984;20.426;2023-04-06T11:37:14;24.00;;;17.13;;
52744;SDS011;38637;49.984;20.426;2023-04-06T11:39:46;21.50;;;17.83;;
52744;SDS011;38637;49.984;20.426;2023-04-06T11:42:25;22.58;;;17.48;;
52744;SDS011;38637;49.984;20.426;2023-04-06T11:44:55;24.85;;;18.48;;
52744;SDS011;38637;49.984;20.426;2023-04-06T11:47:27;21.25;;;16.98;;
52744;SDS011;38637;49.984;20.426;2023-04-06T11:49:53;22.52;;;18.63;;
52744;SDS011;38637;49.984;20.426;2023-04-06T11:52:19;21.57;;;19.27;;
52744;SDS011;38637;49.984;20.426;2023-04-06T11:54:48;25.33;;;19.25;;
52744;SDS011;38637;49.984;20.426;2023-04-06T11:59:39;25.27;;;17.27;;
52744;SDS011;38637;49.984;20.426;2023-04-06T12:02:05;28.23;;;21.80;;
52744;SDS011;38637;49.984;20.426;2023-04-06T12:04:30;30.30;;;21.47;;
52744;SDS011;38637;49.984;20.426;2023-04-06T12:06:56;30.10;;;21.33;;
52744;SDS011;38637;49.984;20.426;2023-04-06T12:09:22;36.13;;;27.63;;
52744;SDS011;38637;49.984;20.426;2023-04-06T12:11:48;29.13;;;22.60;;
52744;SDS011;38637;49.984;20.426;2023-04-06T12:14:13;27.93;;;21.20;;
52744;SDS011;38637;49.984;20.426;2023-04-06T12:16:39;27.37;;;20.87;;
52744;SDS011;38637;49.984;20.426;2023-04-06T12:19:05;24.65;;;19.75;;
52744;SDS011;38637;49.984;20.426;2023-04-06T12:21:31;24.33;;;19.83;;
52744;SDS011;38637;49.984;20.426;2023-04-06T12:23:57;24.35;;;19.73;;
52744;SDS011;38637;49.984;20.426;2023-04-06T12:26:23;26.75;;;21.02;;
52744;SDS011;38637;49.984;20.426;2023-04-06T12:28:49;27.40;;;21.83;;
52744;SDS011;38637;49.984;20.426;2023-04-06T12:31:15;31.57;;;23.67;;
52744;SDS011;38637;49.984;20.426;2023-04-06T12:33:48;24.33;;;21.70;;
52744;SDS011;38637;49.984;20.426;2023-04-06T12:36:15;29.60;;;20.40;;
52744;SDS011;38637;49.984;20.426;2023-04-06T12:38:43;26.48;;;21.00;;
52744;SDS011;38637;49.984;20.426;2023-04-06T12:41:10;30.17;;;21.73;;
52744;SDS011;38637;49.984;20.426;2023-04-06T12:43:36;28.60;;;22.50;;
52744;SDS011;38637;49.984;20.426;2023-04-06T12:46:01;27.23;;;22.73;;
52744;SDS011;38637;49.984;20.426;2023-04-06T12:48:26;27.73;;;23.50;;
52744;SDS011;38637;49.984;20.426;2023-04-06T12:50:59;29.67;;;24.90;;
52744;SDS011;38637;49.984;20.426;2023-04-06T12:53:26;32.05;;;23.08;;
52744;SDS011;38637;49.984;20.426;2023-04-06T12:55:52;23.80;;;20.47;;
52744;SDS011;38637;49.984;20.426;2023-04-06T12:58:19;26.33;;;21.77;;
52744;SDS011;38637;49.984;20.426;2023-04-06T13:00:48;25.77;;;21.17;;
52744;SDS011;38637;49.984;20.426;2023-04-06T13:03:13;28.52;;;23.77;;
52744;SDS011;38637;49.984;20.426;2023-04-06T13:05:46;26.53;;;22.93;;
52744;SDS011;38637;49.984;20.426;2023-04-06T13:08:12;32.10;;;25.65;;
52744;SDS011;38637;49.984;20.426;2023-04-06T13:10:43;27.58;;;23.70;;
52744;SDS011;38637;49.984;20.426;2023-04-06T13:13:09;32.72;;;24.67;;
52744;SDS011;38637;49.984;20.426;2023-04-06T13:15:34;27.53;;;24.43;;
52744;SDS011;38637;49.984;20.426;2023-04-06T13:18:01;31.27;;;24.33;;
52744;SDS011;38637;49.984;20.426;2023-04-06T13:20:26;31.20;;;25.23;;
52744;SDS011;38637;49.984;20.426;2023-04-06T13:22:52;31.13;;;25.63;;
52744;SDS011;38637;49.984;20.426;2023-04-06T13:25:18;32.23;;;28.77;;
52744;SDS011;38637;49.984;20.426;2023-04-06T13:27:43;34.97;;;28.50;;
52744;SDS011;38637;49.984;20.426;2023-04-06T13:30:11;32.47;;;27.35;;
52744;SDS011;38637;49.984;20.426;2023-04-06T13:32:37;32.22;;;27.15;;
52744;SDS011;38637;49.984;20.426;2023-04-06T13:35:02;29.53;;;25.13;;
52744;SDS011;38637;49.984;20.426;2023-04-06T13:37:28;28.25;;;25.27;;
52744;SDS011;38637;49.984;20.426;2023-04-06T13:39:53;32.50;;;25.47;;
52744;SDS011;38637;49.984;20.426;2023-04-06T13:42:19;34.33;;;28.03;;
52744;SDS011;38637;49.984;20.426;2023-04-06T13:44:44;37.13;;;28.67;;
52744;SDS011;38637;49.984;20.426;2023-04-06T13:47:11;33.53;;;27.88;;
52744;SDS011;38637;49.984;20.426;2023-04-06T13:49:37;30.93;;;26.80;;
52744;SDS011;38637;49.984;20.426;2023-04-06T13:52:02;36.90;;;30.53;;
52744;SDS011;38637;49.984;20.426;2023-04-06T13:54:28;36.13;;;28.47;;
52744;SDS011;38637;49.984;20.426;2023-04-06T13:56:53;32.33;;;27.43;;
52744;SDS011;38637;49.984;20.426;2023-04-06T13:59:18;38.80;;;29.90;;
52744;SDS011;38637;49.984;20.426;2023-04-06T14:01:44;34.83;;;26.77;;
52744;SDS011;38637;49.984;20.426;2023-04-06T14:04:09;32.83;;;26.07;;
52744;SDS011;38637;49.984;20.426;2023-04-06T14:06:35;35.77;;;28.10;;
52744;SDS011;38637;49.984;20.426;2023-04-06T14:09:01;36.28;;;30.30;;
52744;SDS011;38637;49.984;20.426;2023-04-06T14:11:27;39.43;;;31.73;;
52744;SDS011;38637;49.984;20.426;2023-04-06T14:13:53;42.80;;;33.07;;
52744;SDS011;38637;49.984;20.426;2023-04-06T14:16:18;38.77;;;29.13;;
52744;SDS011;38637;49.984;20.426;2023-04-06T14:18:44;39.03;;;28.85;;
52744;SDS011;38637;49.984;20.426;2023-04-06T14:21:10;44.53;;;31.30;;